Main page
METAR-TAF:

METAR-TAF

Airports :

Southern Illinois Airport

Carbondale / Murphysboro, Illinois, United States

latitude: 37-46-59N, longitude: 089-14-42W, elevation: 410 ft

Current weather observation

The report was made 33 minutes ago, at 21:52 UTC
Wind 9 mph from the South
Temperature 86°F
Humidity 59%
Pressure 30.19 in. Hg
Visibility: 10 miles
Clear sky

METAR: KMDH 192152Z 19008KT 10SM CLR 30/21 A3019 RMK AO2 SLP218 T03000206

Time: 17:25 (22:25 UTC)


TAF: missing

Weather observations and forecasts of more than 4000 airports (METAR and TAF reports).

The available stations are represented by yellow and red dots on the map.

Hover mouse over dot to see the name of the station.

Then click to see weather observations and forecasts.

To change the map : click on the green buttons with a black cross to zoom in, on the green button with a dash to zoom out, or on the green arrows for adjacent maps.


METAR-TAF: